createdAt,value
2023-05-24T00:00:52.482Z,97.15
2023-05-24T00:03:25.619Z,98.18
2023-05-24T00:05:58.019Z,98.42
2023-05-24T00:08:30.369Z,98.16
2023-05-24T00:11:02.674Z,98.61
2023-05-24T00:13:34.997Z,99.04
2023-05-24T00:16:07.282Z,98.87
2023-05-24T00:18:40.594Z,99.29
2023-05-24T00:21:13.549Z,99.32
2023-05-24T00:23:46.815Z,98.61
2023-05-24T00:26:19.151Z,99.56
2023-05-24T00:28:58.611Z,99.88
2023-05-24T00:31:31.015Z,99.68
2023-05-24T00:34:04.084Z,100.00
2023-05-24T00:36:37.516Z,100.00
2023-05-24T00:39:09.852Z,100.00
2023-05-24T00:41:42.200Z,100.00
2023-05-24T00:44:15.226Z,100.00
2023-05-24T00:46:48.037Z,100.00
2023-05-24T00:49:22.816Z,100.00
2023-05-24T00:51:55.262Z,100.00
2023-05-24T00:54:28.303Z,100.00
2023-05-24T00:57:01.494Z,100.00
2023-05-24T00:59:34.125Z,100.00
2023-05-24T01:02:06.602Z,100.00
2023-05-24T01:04:39.706Z,100.00
2023-05-24T01:07:20.603Z,100.00
2023-05-24T01:10:03.489Z,100.00
2023-05-24T01:12:50.569Z,100.00
2023-05-24T01:15:28.142Z,100.00
2023-05-24T01:18:07.016Z,100.00
2023-05-24T01:20:41.502Z,100.00
2023-05-24T01:23:33.914Z,100.00
2023-05-24T01:26:18.978Z,100.00
2023-05-24T01:28:53.911Z,100.00
2023-05-24T01:31:26.739Z,100.00
2023-05-24T01:33:59.084Z,100.00
2023-05-24T01:36:31.414Z,100.00
2023-05-24T01:39:05.002Z,100.00
2023-05-24T01:41:41.126Z,100.00
2023-05-24T01:44:24.858Z,100.00
2023-05-24T01:47:04.372Z,100.00
2023-05-24T01:49:38.486Z,100.00
2023-05-24T01:52:15.597Z,100.00
2023-05-24T01:54:52.027Z,100.00
2023-05-24T01:57:26.524Z,100.00
2023-05-24T02:00:01.932Z,100.00
2023-05-24T02:02:45.468Z,100.00
2023-05-24T02:05:17.945Z,100.00
2023-05-24T02:07:50.802Z,100.00
2023-05-24T02:10:23.342Z,100.00
2023-05-24T02:12:55.769Z,100.00
2023-05-24T02:15:29.685Z,100.00
2023-05-24T02:18:03.561Z,100.00
2023-05-24T02:20:36.433Z,100.00
2023-05-24T02:23:08.819Z,100.00
2023-05-24T02:25:42.722Z,100.00
2023-05-24T02:28:15.327Z,100.00
2023-05-24T02:30:48.406Z,100.00
2023-05-24T02:33:20.861Z,100.00
2023-05-24T02:35:53.195Z,100.00
2023-05-24T02:38:25.846Z,100.00
2023-05-24T02:40:58.210Z,100.00
2023-05-24T02:43:30.548Z,100.00
2023-05-24T02:46:03.617Z,100.00
2023-05-24T02:48:36.350Z,100.00
2023-05-24T02:51:08.761Z,100.00
2023-05-24T02:53:42.809Z,100.00
2023-05-24T02:56:16.817Z,100.00
2023-05-24T02:58:49.286Z,100.00
2023-05-24T03:01:22.753Z,100.00
2023-05-24T03:03:56.982Z,100.00
2023-05-24T03:06:29.386Z,100.00
2023-05-24T03:09:02.017Z,100.00
2023-05-24T03:11:34.893Z,100.00
2023-05-24T03:14:09.374Z,100.00
2023-05-24T03:16:42.701Z,100.00
2023-05-24T03:19:16.641Z,100.00
2023-05-24T03:21:49.010Z,100.00
2023-05-24T03:24:21.372Z,100.00
2023-05-24T03:26:54.160Z,100.00
2023-05-24T03:29:26.937Z,100.00
2023-05-24T03:32:00.979Z,100.00
2023-05-24T03:34:33.345Z,100.00
2023-05-24T03:37:06.117Z,100.00
2023-05-24T03:39:38.474Z,100.00
2023-05-24T03:42:33.804Z,100.00
2023-05-24T03:45:07.533Z,100.00
2023-05-24T03:47:40.684Z,100.00
2023-05-24T03:50:13.668Z,100.00
2023-05-24T03:52:47.104Z,100.00
2023-05-24T03:55:19.605Z,100.00
2023-05-24T03:57:54.902Z,100.00
2023-05-24T04:00:27.257Z,100.00
2023-05-24T04:03:01.010Z,100.00
2023-05-24T04:05:35.005Z,100.00
2023-05-24T04:08:07.664Z,100.00
2023-05-24T04:10:43.303Z,100.00
2023-05-24T04:13:17.209Z,100.00
2023-05-24T04:15:49.531Z,100.00
2023-05-24T04:18:22.607Z,100.00
2023-05-24T04:20:55.344Z,100.00
2023-05-24T04:23:27.624Z,100.00
2023-05-24T04:26:00.005Z,100.00
2023-05-24T04:28:32.987Z,100.00
2023-05-24T04:31:06.080Z,100.00
2023-05-24T04:33:39.069Z,100.00
2023-05-24T04:36:12.698Z,100.00
2023-05-24T04:38:45.635Z,100.00
2023-05-24T04:41:17.924Z,100.00
2023-05-24T04:43:50.210Z,100.00
2023-05-24T04:46:22.651Z,100.00
2023-05-24T04:48:58.470Z,100.00
2023-05-24T04:51:31.001Z,100.00
2023-05-24T04:54:07.961Z,100.00
2023-05-24T04:56:40.515Z,100.00
2023-05-24T04:59:12.785Z,100.00
2023-05-24T05:01:45.338Z,100.00
2023-05-24T05:04:18.880Z,100.00
2023-05-24T05:06:51.813Z,100.00
2023-05-24T05:09:24.173Z,100.00
2023-05-24T05:11:56.477Z,100.00
2023-05-24T05:14:28.983Z,100.00
2023-05-24T05:17:01.328Z,100.00
2023-05-24T05:19:35.074Z,100.00
2023-05-24T05:22:07.420Z,100.00
2023-05-24T05:24:39.765Z,100.00
2023-05-24T05:27:12.093Z,100.00
2023-05-24T05:29:44.454Z,100.00
2023-05-24T05:32:16.828Z,99.29
2023-05-24T05:34:49.830Z,98.33
2023-05-24T05:37:22.208Z,96.17
2023-05-24T05:39:54.530Z,95.32
2023-05-24T05:42:26.899Z,94.27
2023-05-24T05:44:59.202Z,89.93
2023-05-24T05:47:31.563Z,89.33
2023-05-24T05:50:05.349Z,87.39
2023-05-24T05:52:38.105Z,84.09
2023-05-24T05:55:11.520Z,79.09
2023-05-24T05:57:43.870Z,81.64
2023-05-24T06:00:17.032Z,78.52
2023-05-24T06:02:49.567Z,77.94
2023-05-24T06:05:22.639Z,75.45
2023-05-24T06:07:55.017Z,74.95
2023-05-24T06:10:27.405Z,75.76
2023-05-24T06:13:01.623Z,74.84
2023-05-24T06:15:33.905Z,73.66
2023-05-24T06:18:07.199Z,75.87
2023-05-24T06:20:40.367Z,75.13
2023-05-24T06:23:12.870Z,74.72
2023-05-24T06:25:45.223Z,74.65
2023-05-24T06:28:17.562Z,71.48
2023-05-24T06:30:50.013Z,74.07
2023-05-24T06:33:22.425Z,73.07
2023-05-24T06:35:55.584Z,74.11
2023-05-24T06:38:27.978Z,76.40
2023-05-24T06:41:00.395Z,74.29
2023-05-24T06:43:33.133Z,74.48
2023-05-24T06:46:05.564Z,71.92
2023-05-24T06:48:37.969Z,71.07
2023-05-24T06:51:11.070Z,70.71
2023-05-24T06:53:43.914Z,70.34
2023-05-24T06:56:16.351Z,68.52
2023-05-24T06:58:48.708Z,69.26
2023-05-24T07:01:21.743Z,70.21
2023-05-24T07:03:54.222Z,68.27
2023-05-24T07:06:27.212Z,65.45
2023-05-24T07:09:01.154Z,66.56
2023-05-24T07:11:33.517Z,66.47
2023-05-24T07:14:05.962Z,65.15
2023-05-24T07:16:38.364Z,61.48
2023-05-24T07:19:10.723Z,58.93
2023-05-24T07:21:43.699Z,59.50
2023-05-24T07:24:16.458Z,60.58
2023-05-24T07:26:49.417Z,62.08
2023-05-24T07:29:21.760Z,58.43
2023-05-24T07:31:55.708Z,60.27
2023-05-24T07:34:29.447Z,59.42
2023-05-24T07:37:03.022Z,57.51
2023-05-24T07:39:35.393Z,55.39
2023-05-24T07:42:07.835Z,59.02
2023-05-24T07:44:40.171Z,57.61
2023-05-24T07:47:12.481Z,60.20
2023-05-24T07:49:44.957Z,60.74
2023-05-24T07:52:17.914Z,56.61
2023-05-24T07:54:50.319Z,58.65
2023-05-24T07:57:23.098Z,59.91
2023-05-24T07:59:55.450Z,57.68
2023-05-24T08:02:28.305Z,53.42
2023-05-24T08:05:01.222Z,54.80
2023-05-24T08:07:34.541Z,53.10
2023-05-24T08:10:09.685Z,54.28
2023-05-24T08:12:42.207Z,55.67
2023-05-24T08:15:14.598Z,53.83
2023-05-24T08:17:47.744Z,49.36
2023-05-24T08:20:20.277Z,49.69
2023-05-24T08:22:53.331Z,50.85
2023-05-24T08:25:26.548Z,50.74
2023-05-24T08:27:58.910Z,48.92
2023-05-24T08:30:31.598Z,48.49
2023-05-24T08:33:04.146Z,48.73
2023-05-24T08:35:36.477Z,45.96
2023-05-24T08:38:09.537Z,45.70
2023-05-24T08:40:42.743Z,47.21
2023-05-24T08:43:15.360Z,47.08
2023-05-24T08:45:49.471Z,50.30
2023-05-24T08:48:23.881Z,48.21
2023-05-24T08:50:57.909Z,46.72
2023-05-24T08:53:34.349Z,43.90
2023-05-24T08:56:08.251Z,41.74
2023-05-24T08:58:41.001Z,44.53
2023-05-24T09:01:13.896Z,43.61
2023-05-24T09:03:47.398Z,44.09
2023-05-24T09:06:19.817Z,42.00
2023-05-24T09:08:53.402Z,43.20
2023-05-24T09:11:26.898Z,42.45
2023-05-24T09:14:02.410Z,42.59
2023-05-24T09:16:35.327Z,44.17
2023-05-24T09:19:07.664Z,41.69
2023-05-24T09:21:40.360Z,41.57
2023-05-24T09:24:13.726Z,40.60
2023-05-24T09:26:48.999Z,41.33
2023-05-24T09:29:23.763Z,40.86
2023-05-24T09:31:56.753Z,43.27
2023-05-24T09:34:29.138Z,41.23
2023-05-24T09:37:02.162Z,40.01
2023-05-24T09:39:35.335Z,38.31
2023-05-24T09:42:07.827Z,38.98
2023-05-24T09:44:40.152Z,39.95
2023-05-24T09:47:13.098Z,40.56
2023-05-24T09:49:48.532Z,38.06
2023-05-24T09:52:22.564Z,38.01
2023-05-24T09:54:55.725Z,36.33
2023-05-24T09:57:28.091Z,38.93
2023-05-24T10:00:13.986Z,37.31
2023-05-24T10:02:53.505Z,35.26
2023-05-24T10:05:26.990Z,36.78
2023-05-24T10:08:00.362Z,34.90
2023-05-24T10:10:33.718Z,36.61
2023-05-24T10:13:06.895Z,38.96
2023-05-24T10:15:39.244Z,36.11
2023-05-24T10:18:13.853Z,36.66
2023-05-24T10:20:47.350Z,34.01
2023-05-24T10:23:24.121Z,36.22
2023-05-24T10:26:03.535Z,36.57
2023-05-24T10:28:40.440Z,35.46
2023-05-24T10:31:16.195Z,33.41
2023-05-24T10:33:51.213Z,32.68
2023-05-24T10:36:25.446Z,35.07
2023-05-24T10:38:58.049Z,37.24
2023-05-24T10:41:39.431Z,32.41
2023-05-24T10:44:12.741Z,32.52
2023-05-24T10:47:08.083Z,32.32
2023-05-24T10:49:49.955Z,31.75
2023-05-24T10:52:33.775Z,29.90
2023-05-24T10:55:08.893Z,31.80
2023-05-24T10:57:41.951Z,30.47
2023-05-24T11:03:08.767Z,30.44
2023-05-24T11:05:52.975Z,31.95
2023-05-24T11:08:30.344Z,32.87
2023-05-24T11:11:22.381Z,33.26
2023-05-24T11:14:01.038Z,31.66
2023-05-24T11:16:34.577Z,31.41
2023-05-24T11:19:16.621Z,32.34
2023-05-24T11:21:50.840Z,32.97
2023-05-24T11:24:24.683Z,31.87
2023-05-24T11:26:57.806Z,32.99
2023-05-24T11:29:30.869Z,32.39
2023-05-24T11:32:04.120Z,31.32
2023-05-24T11:34:39.374Z,31.94
2023-05-24T11:37:13.936Z,29.36
2023-05-24T11:39:51.888Z,31.69
2023-05-24T11:42:24.276Z,32.16
2023-05-24T11:44:57.332Z,32.10
2023-05-24T11:47:29.737Z,31.16
2023-05-24T11:50:02.972Z,30.45
2023-05-24T11:52:39.411Z,31.71
2023-05-24T11:55:14.965Z,32.47
2023-05-24T11:57:57.599Z,31.72
2023-05-24T12:00:31.148Z,31.31
2023-05-24T12:03:06.865Z,30.80
2023-05-24T12:05:39.275Z,30.17
2023-05-24T12:08:13.473Z,31.82
2023-05-24T12:10:48.224Z,32.02
2023-05-24T12:13:22.924Z,31.71
2023-05-24T12:15:57.483Z,29.88
2023-05-24T12:18:30.294Z,30.74
2023-05-24T12:21:08.550Z,31.58
2023-05-24T12:23:40.900Z,30.05
2023-05-24T12:26:15.536Z,29.65
2023-05-24T12:28:53.793Z,30.94
2023-05-24T12:31:27.257Z,31.67
2023-05-24T12:33:59.665Z,31.02
2023-05-24T12:36:32.736Z,30.33
2023-05-24T12:39:21.597Z,31.07
2023-05-24T12:41:55.348Z,31.87
2023-05-24T12:44:28.812Z,30.63
2023-05-24T12:47:03.681Z,32.32
2023-05-24T12:49:36.421Z,31.12
2023-05-24T12:52:08.914Z,32.44
2023-05-24T12:54:41.314Z,31.33
2023-05-24T12:57:13.815Z,32.10
2023-05-24T12:59:46.720Z,32.67
2023-05-24T13:02:19.804Z,31.65
2023-05-24T13:04:59.805Z,31.56
2023-05-24T13:07:32.199Z,30.50
2023-05-24T13:10:05.495Z,31.15
2023-05-24T13:12:38.528Z,31.03
2023-05-24T13:15:11.914Z,30.32
2023-05-24T13:17:45.218Z,32.31
2023-05-24T13:20:21.328Z,31.94
2023-05-24T13:22:53.682Z,31.19
2023-05-24T13:25:26.446Z,33.80
2023-05-24T13:27:59.293Z,34.17
2023-05-24T13:30:31.677Z,33.57
2023-05-24T13:33:05.199Z,31.95
2023-05-24T13:35:37.688Z,31.09
2023-05-24T13:38:10.333Z,32.90
2023-05-24T13:40:42.976Z,33.18
2023-05-24T13:43:15.665Z,31.74
2023-05-24T13:45:48.049Z,32.07
2023-05-24T13:48:21.089Z,32.67
2023-05-24T13:50:53.493Z,32.03
2023-05-24T13:53:27.647Z,32.36
2023-05-24T13:56:00.443Z,33.68
2023-05-24T13:58:32.922Z,33.44
2023-05-24T14:01:05.431Z,35.59
2023-05-24T14:03:40.275Z,38.30
2023-05-24T14:06:12.669Z,39.22
2023-05-24T14:08:45.272Z,41.09
2023-05-24T14:11:18.871Z,41.70
2023-05-24T14:14:57.174Z,42.77
2023-05-24T14:16:50.984Z,42.40
2023-05-24T14:19:23.994Z,43.19
2023-05-24T14:21:56.469Z,43.72
2023-05-24T14:24:28.791Z,44.22
2023-05-24T14:27:01.596Z,45.67
2023-05-24T14:29:33.940Z,45.81
2023-05-24T14:32:06.445Z,46.47
2023-05-24T14:34:39.692Z,47.13
2023-05-24T14:37:12.034Z,48.18
2023-05-24T14:39:44.383Z,48.07
2023-05-24T14:42:16.779Z,46.90
2023-05-24T14:44:49.102Z,46.38
2023-05-24T14:47:21.419Z,47.52
2023-05-24T14:49:54.434Z,46.99
2023-05-24T14:52:27.022Z,45.20
2023-05-24T14:54:59.342Z,46.05
2023-05-24T14:57:31.704Z,46.64
2023-05-24T15:00:05.056Z,45.70
2023-05-24T15:02:37.748Z,46.89
2023-05-24T15:05:10.851Z,43.36
2023-05-24T15:07:43.187Z,42.55
2023-05-24T15:10:15.516Z,42.90
2023-05-24T15:12:48.211Z,44.26
2023-05-24T15:15:21.842Z,44.43
2023-05-24T15:17:54.291Z,43.52
2023-05-24T15:20:27.463Z,43.49
2023-05-24T15:22:59.973Z,43.63
2023-05-24T15:25:32.792Z,43.97
2023-05-24T15:28:05.147Z,46.67
2023-05-24T15:30:37.451Z,45.55
2023-05-24T15:33:10.062Z,47.77
2023-05-24T15:35:43.312Z,47.25
2023-05-24T15:38:16.950Z,48.15
2023-05-24T15:40:49.333Z,48.75
2023-05-24T15:43:21.706Z,46.86
2023-05-24T15:46:14.249Z,47.35
2023-05-24T15:48:46.662Z,48.58
2023-05-24T15:51:57.521Z,49.00
2023-05-24T15:54:12.158Z,49.03
2023-05-24T15:56:44.516Z,48.73
2023-05-24T15:59:16.833Z,48.42
2023-05-24T16:01:49.182Z,49.46
2023-05-24T16:07:35.991Z,49.33
2023-05-24T16:10:08.509Z,49.95
2023-05-24T16:12:41.026Z,49.93
2023-05-24T16:15:15.818Z,46.90
2023-05-24T16:17:48.183Z,48.63
2023-05-24T16:20:32.538Z,48.88
2023-05-24T16:23:05.606Z,47.39
2023-05-24T16:25:37.925Z,47.31
2023-05-24T16:28:10.276Z,48.25
2023-05-24T16:30:42.782Z,45.60
2023-05-24T16:33:15.491Z,47.42
2023-05-24T16:35:54.347Z,46.69
2023-05-24T16:38:27.373Z,47.89
2023-05-24T16:40:59.667Z,49.29
2023-05-24T16:43:32.156Z,49.58
2023-05-24T16:46:04.718Z,49.81
2023-05-24T16:48:37.083Z,47.18
2023-05-24T16:51:09.689Z,47.79
2023-05-24T16:53:42.702Z,47.95
2023-05-24T16:56:15.194Z,48.31
2023-05-24T16:58:47.522Z,48.63
2023-05-24T17:01:19.961Z,49.24
2023-05-24T17:03:52.490Z,48.94
2023-05-24T17:06:28.026Z,49.26
2023-05-24T17:09:01.468Z,49.98
2023-05-24T17:11:33.804Z,50.32
2023-05-24T17:14:06.444Z,51.79
2023-05-24T17:16:38.862Z,52.28
2023-05-24T17:19:13.221Z,52.39
2023-05-24T17:21:45.560Z,53.36
2023-05-24T17:24:24.490Z,53.13
2023-05-24T17:26:56.845Z,53.14
2023-05-24T17:29:29.551Z,53.87
2023-05-24T17:32:02.089Z,53.61
2023-05-24T17:34:34.540Z,54.20
2023-05-24T17:37:06.896Z,55.15
2023-05-24T17:39:39.885Z,55.42
2023-05-24T17:42:12.207Z,56.08
2023-05-24T17:44:44.556Z,55.93
2023-05-24T17:47:16.911Z,58.68
2023-05-24T17:49:49.265Z,59.46
2023-05-24T17:52:21.617Z,59.48
2023-05-24T17:54:55.975Z,59.13
2023-05-24T17:57:28.376Z,58.97
2023-05-24T18:00:01.327Z,58.95
2023-05-24T18:02:33.714Z,60.57
2023-05-24T18:05:06.984Z,60.31
2023-05-24T18:07:39.395Z,60.39
2023-05-24T18:10:12.557Z,60.78
2023-05-24T18:12:44.885Z,61.54
2023-05-24T18:15:17.268Z,62.52
2023-05-24T18:17:49.859Z,62.35
2023-05-24T18:20:22.347Z,62.84
2023-05-24T18:22:54.694Z,62.86
2023-05-24T18:25:27.705Z,63.61
2023-05-24T18:28:00.185Z,63.45
2023-05-24T18:30:32.826Z,63.97
2023-05-24T18:33:08.213Z,64.03
2023-05-24T18:35:41.001Z,64.75
2023-05-24T18:38:13.570Z,63.51
2023-05-24T18:40:51.553Z,63.77
2023-05-24T18:43:23.857Z,65.28
2023-05-24T18:45:56.228Z,64.79
2023-05-24T18:48:28.622Z,63.41
2023-05-24T18:51:01.648Z,64.73
2023-05-24T18:53:34.072Z,66.21
2023-05-24T18:56:07.075Z,66.74
2023-05-24T18:58:40.676Z,64.80
2023-05-24T19:01:13.120Z,64.63
2023-05-24T19:03:45.468Z,62.46
2023-05-24T19:06:17.905Z,61.59
2023-05-24T19:08:50.464Z,61.15
2023-05-24T19:11:23.464Z,60.44
2023-05-24T19:13:55.826Z,60.05
2023-05-24T19:16:28.241Z,61.28
2023-05-24T19:19:01.066Z,59.89
2023-05-24T19:21:33.461Z,58.72
2023-05-24T19:24:06.484Z,60.68
2023-05-24T19:26:39.482Z,62.93
2023-05-24T19:29:11.813Z,62.88
2023-05-24T19:31:50.020Z,63.15
2023-05-24T19:34:22.425Z,63.12
2023-05-24T19:36:55.299Z,62.26
2023-05-24T19:39:27.602Z,62.08
2023-05-24T19:42:01.072Z,63.36
2023-05-24T19:44:33.603Z,63.21
2023-05-24T19:47:06.402Z,63.69
2023-05-24T19:49:38.736Z,64.24
2023-05-24T19:52:11.164Z,63.96
2023-05-24T19:54:43.534Z,63.64
2023-05-24T19:57:16.584Z,64.51
2023-05-24T19:59:48.916Z,64.65
2023-05-24T20:02:21.232Z,64.87
2023-05-24T20:04:53.560Z,65.37
2023-05-24T20:07:25.919Z,66.48
2023-05-24T20:09:58.523Z,67.09
2023-05-24T20:12:33.800Z,66.68
2023-05-24T20:15:07.809Z,66.63
2023-05-24T20:17:40.673Z,67.76
2023-05-24T20:20:13.100Z,68.51
2023-05-24T20:22:45.539Z,68.46
2023-05-24T20:25:19.130Z,68.91
2023-05-24T20:27:52.202Z,68.99
2023-05-24T20:30:24.939Z,68.91
2023-05-24T20:32:57.223Z,69.07
2023-05-24T20:35:30.424Z,69.86
2023-05-24T20:38:02.778Z,70.47
2023-05-24T20:40:35.094Z,70.63
2023-05-24T20:43:08.185Z,70.41
2023-05-24T20:45:41.016Z,71.85
2023-05-24T20:48:13.659Z,73.36
2023-05-24T20:50:46.005Z,72.96
2023-05-24T20:53:18.420Z,72.91
2023-05-24T20:55:50.802Z,73.08
2023-05-24T20:58:23.797Z,73.15
2023-05-24T21:00:56.256Z,73.82
2023-05-24T21:03:29.317Z,74.02
2023-05-24T21:06:01.969Z,74.37
2023-05-24T21:08:34.330Z,76.04
2023-05-24T21:11:06.747Z,75.64
2023-05-24T21:13:40.481Z,76.14
2023-05-24T21:16:12.864Z,76.78
2023-05-24T21:18:45.229Z,77.31
2023-05-24T21:21:17.670Z,77.61
2023-05-24T21:23:49.987Z,76.75
2023-05-24T21:26:22.370Z,76.97
2023-05-24T21:28:55.402Z,77.45
2023-05-24T21:31:29.905Z,77.67
2023-05-24T21:34:02.505Z,79.03
2023-05-24T21:36:35.697Z,79.50
2023-05-24T21:39:08.080Z,79.00
2023-05-24T21:41:40.765Z,78.92
2023-05-24T21:44:13.912Z,78.50
2023-05-24T21:46:46.289Z,78.56
2023-05-24T21:49:19.388Z,78.57
2023-05-24T21:51:51.814Z,80.31
2023-05-24T21:54:24.215Z,80.56
2023-05-24T21:56:56.633Z,82.31
2023-05-24T21:59:29.595Z,82.44
2023-05-24T22:02:01.936Z,81.66
2023-05-24T22:04:34.290Z,81.52
2023-05-24T22:07:06.680Z,81.81
2023-05-24T22:09:39.266Z,82.23
2023-05-24T22:12:11.608Z,83.15
2023-05-24T22:14:44.689Z,83.37
2023-05-24T22:17:17.062Z,83.60
2023-05-24T22:19:49.404Z,82.84
2023-05-24T22:22:22.142Z,82.70
2023-05-24T22:24:54.565Z,82.55
2023-05-24T22:27:27.046Z,83.30
2023-05-24T22:30:01.249Z,83.50
2023-05-24T22:32:33.999Z,83.67
2023-05-24T22:35:07.100Z,84.50
2023-05-24T22:37:39.455Z,84.86
2023-05-24T22:40:12.823Z,85.51
2023-05-24T22:42:45.168Z,86.49
2023-05-24T22:45:18.447Z,86.90
2023-05-24T22:47:50.820Z,87.82
2023-05-24T22:50:23.182Z,88.04
2023-05-24T22:52:55.955Z,87.86
2023-05-24T22:55:28.247Z,88.27
2023-05-24T22:58:01.123Z,88.37
2023-05-24T23:00:34.133Z,88.92
2023-05-24T23:03:07.069Z,89.17
2023-05-24T23:05:40.418Z,89.67
2023-05-24T23:08:12.858Z,90.87
2023-05-24T23:10:46.164Z,92.14
2023-05-24T23:13:18.552Z,92.60
2023-05-24T23:15:51.537Z,92.47
2023-05-24T23:18:25.651Z,93.73
2023-05-24T23:20:59.821Z,93.82
2023-05-24T23:23:32.156Z,94.69
2023-05-24T23:26:04.508Z,95.04
2023-05-24T23:28:36.873Z,93.98
2023-05-24T23:31:10.228Z,93.82
2023-05-24T23:33:42.571Z,93.91
2023-05-24T23:36:15.022Z,94.85
2023-05-24T23:38:47.367Z,94.72
2023-05-24T23:41:19.795Z,94.33
2023-05-24T23:43:52.119Z,94.44
2023-05-24T23:46:25.128Z,94.38
2023-05-24T23:48:57.523Z,93.91
2023-05-24T23:51:32.534Z,94.39
2023-05-24T23:54:05.076Z,94.98
2023-05-24T23:56:38.467Z,95.93
2023-05-24T23:59:10.956Z,96.10
